sensor_id;sensor_type;location;lat;lon;timestamp;P1;durP1;ratioP1;P2;durP2;ratioP2
19927;SDS011;10126;50.876;4.470;2023-04-09T00:00:44;0.30;;;0.30;;
19927;SDS011;10126;50.876;4.470;2023-04-09T00:02:45;0.30;;;0.30;;
19927;SDS011;10126;50.876;4.470;2023-04-09T00:04:45;0.30;;;0.30;;
19927;SDS011;10126;50.876;4.470;2023-04-09T00:06:46;0.30;;;0.30;;
19927;SDS011;10126;50.876;4.470;2023-04-09T00:08:47;0.40;;;0.40;;
19927;SDS011;10126;50.876;4.470;2023-04-09T00:10:48;0.30;;;0.30;;
19927;SDS011;10126;50.876;4.470;2023-04-09T00:12:49;0.30;;;0.30;;
19927;SDS011;10126;50.876;4.470;2023-04-09T00:14:52;0.30;;;0.30;;
19927;SDS011;10126;50.876;4.470;2023-04-09T00:16:54;0.30;;;0.30;;
19927;SDS011;10126;50.876;4.470;2023-04-09T00:18:55;0.30;;;0.30;;
19927;SDS011;10126;50.876;4.470;2023-04-09T00:20:56;0.30;;;0.30;;
19927;SDS011;10126;50.876;4.470;2023-04-09T00:22:56;0.30;;;0.30;;
19927;SDS011;10126;50.876;4.470;2023-04-09T00:24:57;0.30;;;0.30;;
19927;SDS011;10126;50.876;4.470;2023-04-09T00:26:58;0.30;;;0.30;;
19927;SDS011;10126;50.876;4.470;2023-04-09T00:28:59;0.30;;;0.30;;
19927;SDS011;10126;50.876;4.470;2023-04-09T00:30:59;0.30;;;0.30;;
19927;SDS011;10126;50.876;4.470;2023-04-09T00:33:00;0.33;;;0.33;;
19927;SDS011;10126;50.876;4.470;2023-04-09T00:35:01;0.40;;;0.40;;
19927;SDS011;10126;50.876;4.470;2023-04-09T00:37:02;0.30;;;0.30;;
19927;SDS011;10126;50.876;4.470;2023-04-09T00:39:02;0.30;;;0.30;;
19927;SDS011;10126;50.876;4.470;2023-04-09T00:41:03;0.30;;;0.30;;
19927;SDS011;10126;50.876;4.470;2023-04-09T00:43:04;0.30;;;0.30;;
19927;SDS011;10126;50.876;4.470;2023-04-09T00:45:05;0.37;;;0.37;;
19927;SDS011;10126;50.876;4.470;2023-04-09T00:47:06;0.30;;;0.30;;
19927;SDS011;10126;50.876;4.470;2023-04-09T00:49:07;0.30;;;0.30;;
19927;SDS011;10126;50.876;4.470;2023-04-09T00:51:08;0.30;;;0.30;;
19927;SDS011;10126;50.876;4.470;2023-04-09T00:53:09;0.30;;;0.30;;
19927;SDS011;10126;50.876;4.470;2023-04-09T00:55:11;0.30;;;0.30;;
19927;SDS011;10126;50.876;4.470;2023-04-09T00:57:12;0.30;;;0.30;;
19927;SDS011;10126;50.876;4.470;2023-04-09T00:59:13;0.30;;;0.30;;
19927;SDS011;10126;50.876;4.470;2023-04-09T01:01:14;0.40;;;0.40;;
19927;SDS011;10126;50.876;4.470;2023-04-09T01:03:15;0.30;;;0.30;;
19927;SDS011;10126;50.876;4.470;2023-04-09T01:05:16;0.30;;;0.30;;
19927;SDS011;10126;50.876;4.470;2023-04-09T01:09:32;0.30;;;0.30;;
19927;SDS011;10126;50.876;4.470;2023-04-09T01:11:59;0.30;;;0.30;;
19927;SDS011;10126;50.876;4.470;2023-04-09T01:14:13;0.30;;;0.30;;
19927;SDS011;10126;50.876;4.470;2023-04-09T01:16:23;0.30;;;0.30;;
19927;SDS011;10126;50.876;4.470;2023-04-09T01:27:46;0.30;;;0.30;;
19927;SDS011;10126;50.876;4.470;2023-04-09T01:29:58;0.40;;;0.40;;
19927;SDS011;10126;50.876;4.470;2023-04-09T01:32:03;0.30;;;0.30;;
19927;SDS011;10126;50.876;4.470;2023-04-09T01:34:06;0.20;;;0.20;;
19927;SDS011;10126;50.876;4.470;2023-04-09T01:36:08;0.40;;;0.40;;
19927;SDS011;10126;50.876;4.470;2023-04-09T01:38:10;0.30;;;0.30;;
19927;SDS011;10126;50.876;4.470;2023-04-09T01:40:12;0.30;;;0.30;;
19927;SDS011;10126;50.876;4.470;2023-04-09T01:42:14;0.30;;;0.30;;
19927;SDS011;10126;50.876;4.470;2023-04-09T01:44:16;0.40;;;0.40;;
19927;SDS011;10126;50.876;4.470;2023-04-09T01:46:18;0.30;;;0.30;;
19927;SDS011;10126;50.876;4.470;2023-04-09T01:48:20;0.30;;;0.30;;
19927;SDS011;10126;50.876;4.470;2023-04-09T01:50:21;0.30;;;0.30;;
19927;SDS011;10126;50.876;4.470;2023-04-09T01:52:22;0.30;;;0.30;;
19927;SDS011;10126;50.876;4.470;2023-04-09T01:54:23;0.23;;;0.23;;
19927;SDS011;10126;50.876;4.470;2023-04-09T01:56:24;0.30;;;0.30;;
19927;SDS011;10126;50.876;4.470;2023-04-09T01:58:25;0.30;;;0.30;;
19927;SDS011;10126;50.876;4.470;2023-04-09T02:00:31;0.30;;;0.30;;
19927;SDS011;10126;50.876;4.470;2023-04-09T02:02:41;0.27;;;0.27;;
19927;SDS011;10126;50.876;4.470;2023-04-09T02:05:04;0.30;;;0.30;;
19927;SDS011;10126;50.876;4.470;2023-04-09T02:07:17;0.40;;;0.40;;
19927;SDS011;10126;50.876;4.470;2023-04-09T02:09:38;0.33;;;0.33;;
19927;SDS011;10126;50.876;4.470;2023-04-09T02:11:40;0.30;;;0.30;;
19927;SDS011;10126;50.876;4.470;2023-04-09T02:13:42;0.40;;;0.40;;
19927;SDS011;10126;50.876;4.470;2023-04-09T02:15:44;0.30;;;0.30;;
19927;SDS011;10126;50.876;4.470;2023-04-09T02:17:45;0.40;;;0.40;;
19927;SDS011;10126;50.876;4.470;2023-04-09T02:19:46;0.30;;;0.30;;
19927;SDS011;10126;50.876;4.470;2023-04-09T02:21:47;0.30;;;0.30;;
19927;SDS011;10126;50.876;4.470;2023-04-09T02:23:48;0.30;;;0.30;;
19927;SDS011;10126;50.876;4.470;2023-04-09T02:25:50;0.40;;;0.40;;
19927;SDS011;10126;50.876;4.470;2023-04-09T02:27:51;0.30;;;0.30;;
19927;SDS011;10126;50.876;4.470;2023-04-09T02:29:52;0.30;;;0.30;;
19927;SDS011;10126;50.876;4.470;2023-04-09T02:31:52;0.30;;;0.30;;
19927;SDS011;10126;50.876;4.470;2023-04-09T02:33:54;0.30;;;0.30;;
19927;SDS011;10126;50.876;4.470;2023-04-09T02:35:54;0.40;;;0.40;;
19927;SDS011;10126;50.876;4.470;2023-04-09T02:37:57;0.33;;;0.33;;
19927;SDS011;10126;50.876;4.470;2023-04-09T02:39:58;0.30;;;0.30;;
19927;SDS011;10126;50.876;4.470;2023-04-09T02:41:59;0.30;;;0.30;;
19927;SDS011;10126;50.876;4.470;2023-04-09T02:44:00;0.30;;;0.30;;
19927;SDS011;10126;50.876;4.470;2023-04-09T02:46:01;0.30;;;0.30;;
19927;SDS011;10126;50.876;4.470;2023-04-09T02:48:04;0.40;;;0.40;;
19927;SDS011;10126;50.876;4.470;2023-04-09T02:50:38;0.40;;;0.40;;
19927;SDS011;10126;50.876;4.470;2023-04-09T02:53:18;0.40;;;0.40;;
19927;SDS011;10126;50.876;4.470;2023-04-09T02:55:20;0.30;;;0.30;;
19927;SDS011;10126;50.876;4.470;2023-04-09T02:57:21;0.30;;;0.30;;
19927;SDS011;10126;50.876;4.470;2023-04-09T02:59:22;0.40;;;0.40;;
19927;SDS011;10126;50.876;4.470;2023-04-09T03:01:22;0.40;;;0.40;;
19927;SDS011;10126;50.876;4.470;2023-04-09T03:03:23;0.40;;;0.40;;
19927;SDS011;10126;50.876;4.470;2023-04-09T03:05:24;0.33;;;0.33;;
19927;SDS011;10126;50.876;4.470;2023-04-09T03:07:25;0.30;;;0.30;;
19927;SDS011;10126;50.876;4.470;2023-04-09T03:09:25;0.30;;;0.30;;
19927;SDS011;10126;50.876;4.470;2023-04-09T03:11:26;0.40;;;0.40;;
19927;SDS011;10126;50.876;4.470;2023-04-09T03:13:27;0.40;;;0.40;;
19927;SDS011;10126;50.876;4.470;2023-04-09T03:15:27;0.73;;;0.30;;
19927;SDS011;10126;50.876;4.470;2023-04-09T03:17:30;0.30;;;0.30;;
19927;SDS011;10126;50.876;4.470;2023-04-09T03:19:33;0.30;;;0.30;;
19927;SDS011;10126;50.876;4.470;2023-04-09T03:21:34;0.30;;;0.30;;
19927;SDS011;10126;50.876;4.470;2023-04-09T03:23:35;0.40;;;0.40;;
19927;SDS011;10126;50.876;4.470;2023-04-09T03:25:38;0.40;;;0.40;;
19927;SDS011;10126;50.876;4.470;2023-04-09T03:27:39;0.40;;;0.40;;
19927;SDS011;10126;50.876;4.470;2023-04-09T03:29:39;0.40;;;0.40;;
19927;SDS011;10126;50.876;4.470;2023-04-09T03:32:03;0.40;;;0.40;;
19927;SDS011;10126;50.876;4.470;2023-04-09T03:34:06;0.30;;;0.30;;
19927;SDS011;10126;50.876;4.470;2023-04-09T03:36:10;0.40;;;0.40;;
19927;SDS011;10126;50.876;4.470;2023-04-09T03:38:10;0.40;;;0.40;;
19927;SDS011;10126;50.876;4.470;2023-04-09T03:40:11;0.30;;;0.30;;
19927;SDS011;10126;50.876;4.470;2023-04-09T03:42:12;0.40;;;0.40;;
19927;SDS011;10126;50.876;4.470;2023-04-09T03:44:15;0.30;;;0.30;;
19927;SDS011;10126;50.876;4.470;2023-04-09T03:46:17;0.30;;;0.30;;
19927;SDS011;10126;50.876;4.470;2023-04-09T03:48:18;0.40;;;0.40;;
19927;SDS011;10126;50.876;4.470;2023-04-09T03:50:19;0.30;;;0.30;;
19927;SDS011;10126;50.876;4.470;2023-04-09T03:52:19;0.30;;;0.30;;
19927;SDS011;10126;50.876;4.470;2023-04-09T03:54:20;0.40;;;0.40;;
19927;SDS011;10126;50.876;4.470;2023-04-09T03:56:21;0.40;;;0.40;;
19927;SDS011;10126;50.876;4.470;2023-04-09T03:58:22;0.40;;;0.40;;
19927;SDS011;10126;50.876;4.470;2023-04-09T04:00:22;0.77;;;0.40;;
19927;SDS011;10126;50.876;4.470;2023-04-09T04:02:23;0.33;;;0.33;;
19927;SDS011;10126;50.876;4.470;2023-04-09T04:04:25;0.40;;;0.40;;
19927;SDS011;10126;50.876;4.470;2023-04-09T04:06:29;0.40;;;0.40;;
19927;SDS011;10126;50.876;4.470;2023-04-09T04:08:33;0.40;;;0.40;;
19927;SDS011;10126;50.876;4.470;2023-04-09T04:10:34;0.30;;;0.30;;
19927;SDS011;10126;50.876;4.470;2023-04-09T04:12:34;0.30;;;0.30;;
19927;SDS011;10126;50.876;4.470;2023-04-09T04:14:35;0.40;;;0.40;;
19927;SDS011;10126;50.876;4.470;2023-04-09T04:16:35;0.50;;;0.50;;
19927;SDS011;10126;50.876;4.470;2023-04-09T04:18:36;0.40;;;0.40;;
19927;SDS011;10126;50.876;4.470;2023-04-09T04:20:37;0.40;;;0.40;;
19927;SDS011;10126;50.876;4.470;2023-04-09T04:22:39;0.30;;;0.30;;
19927;SDS011;10126;50.876;4.470;2023-04-09T04:24:39;0.40;;;0.40;;
19927;SDS011;10126;50.876;4.470;2023-04-09T04:26:43;0.30;;;0.30;;
19927;SDS011;10126;50.876;4.470;2023-04-09T04:28:44;0.40;;;0.40;;
19927;SDS011;10126;50.876;4.470;2023-04-09T04:30:44;0.40;;;0.40;;
19927;SDS011;10126;50.876;4.470;2023-04-09T04:32:45;0.40;;;0.40;;
19927;SDS011;10126;50.876;4.470;2023-04-09T04:34:49;0.40;;;0.40;;
19927;SDS011;10126;50.876;4.470;2023-04-09T04:36:50;0.40;;;0.40;;
19927;SDS011;10126;50.876;4.470;2023-04-09T04:38:53;0.33;;;0.33;;
19927;SDS011;10126;50.876;4.470;2023-04-09T04:40:54;0.40;;;0.40;;
19927;SDS011;10126;50.876;4.470;2023-04-09T04:42:54;0.40;;;0.40;;
19927;SDS011;10126;50.876;4.470;2023-04-09T04:44:55;0.40;;;0.40;;
19927;SDS011;10126;50.876;4.470;2023-04-09T04:46:55;0.37;;;0.37;;
19927;SDS011;10126;50.876;4.470;2023-04-09T04:48:56;0.40;;;0.40;;
19927;SDS011;10126;50.876;4.470;2023-04-09T04:50:57;0.40;;;0.40;;
19927;SDS011;10126;50.876;4.470;2023-04-09T04:52:59;0.30;;;0.30;;
19927;SDS011;10126;50.876;4.470;2023-04-09T04:55:02;0.40;;;0.40;;
19927;SDS011;10126;50.876;4.470;2023-04-09T04:57:03;0.40;;;0.40;;
19927;SDS011;10126;50.876;4.470;2023-04-09T04:59:04;0.40;;;0.40;;
19927;SDS011;10126;50.876;4.470;2023-04-09T05:01:04;0.50;;;0.40;;
19927;SDS011;10126;50.876;4.470;2023-04-09T05:03:05;0.40;;;0.40;;
19927;SDS011;10126;50.876;4.470;2023-04-09T05:05:08;0.40;;;0.40;;
19927;SDS011;10126;50.876;4.470;2023-04-09T05:07:09;0.30;;;0.30;;
19927;SDS011;10126;50.876;4.470;2023-04-09T05:09:09;0.30;;;0.30;;
19927;SDS011;10126;50.876;4.470;2023-04-09T05:11:11;0.40;;;0.40;;
19927;SDS011;10126;50.876;4.470;2023-04-09T05:13:11;0.40;;;0.40;;
19927;SDS011;10126;50.876;4.470;2023-04-09T05:15:12;0.40;;;0.40;;
19927;SDS011;10126;50.876;4.470;2023-04-09T05:17:13;0.33;;;0.33;;
19927;SDS011;10126;50.876;4.470;2023-04-09T05:19:14;0.40;;;0.40;;
19927;SDS011;10126;50.876;4.470;2023-04-09T05:21:15;0.40;;;0.40;;
19927;SDS011;10126;50.876;4.470;2023-04-09T05:23:18;0.40;;;0.40;;
19927;SDS011;10126;50.876;4.470;2023-04-09T05:25:19;0.33;;;0.33;;
19927;SDS011;10126;50.876;4.470;2023-04-09T05:27:19;0.30;;;0.30;;
19927;SDS011;10126;50.876;4.470;2023-04-09T05:29:23;0.40;;;0.40;;
19927;SDS011;10126;50.876;4.470;2023-04-09T05:31:23;0.40;;;0.40;;
19927;SDS011;10126;50.876;4.470;2023-04-09T05:33:24;0.30;;;0.30;;
19927;SDS011;10126;50.876;4.470;2023-04-09T05:35:25;0.30;;;0.30;;
19927;SDS011;10126;50.876;4.470;2023-04-09T05:37:25;0.30;;;0.30;;
19927;SDS011;10126;50.876;4.470;2023-04-09T05:39:26;0.30;;;0.30;;
19927;SDS011;10126;50.876;4.470;2023-04-09T05:41:27;0.30;;;0.30;;
19927;SDS011;10126;50.876;4.470;2023-04-09T05:43:27;0.40;;;0.40;;
19927;SDS011;10126;50.876;4.470;2023-04-09T05:45:28;0.30;;;0.30;;
19927;SDS011;10126;50.876;4.470;2023-04-09T05:47:28;0.40;;;0.40;;
19927;SDS011;10126;50.876;4.470;2023-04-09T05:49:29;0.30;;;0.30;;
19927;SDS011;10126;50.876;4.470;2023-04-09T05:51:32;0.40;;;0.40;;
19927;SDS011;10126;50.876;4.470;2023-04-09T05:53:32;0.30;;;0.30;;
19927;SDS011;10126;50.876;4.470;2023-04-09T05:55:33;0.40;;;0.40;;
19927;SDS011;10126;50.876;4.470;2023-04-09T05:57:34;0.30;;;0.30;;
19927;SDS011;10126;50.876;4.470;2023-04-09T05:59:34;0.30;;;0.30;;
19927;SDS011;10126;50.876;4.470;2023-04-09T06:01:35;0.33;;;0.33;;
19927;SDS011;10126;50.876;4.470;2023-04-09T06:03:36;0.20;;;0.20;;
19927;SDS011;10126;50.876;4.470;2023-04-09T06:05:36;0.30;;;0.30;;
19927;SDS011;10126;50.876;4.470;2023-04-09T06:07:45;0.30;;;0.30;;
19927;SDS011;10126;50.876;4.470;2023-04-09T06:09:54;0.30;;;0.30;;
19927;SDS011;10126;50.876;4.470;2023-04-09T06:11:55;0.40;;;0.40;;
19927;SDS011;10126;50.876;4.470;2023-04-09T06:13:59;0.30;;;0.30;;
19927;SDS011;10126;50.876;4.470;2023-04-09T06:16:05;0.20;;;0.20;;
19927;SDS011;10126;50.876;4.470;2023-04-09T06:18:07;0.20;;;0.20;;
19927;SDS011;10126;50.876;4.470;2023-04-09T06:20:08;0.20;;;0.20;;
19927;SDS011;10126;50.876;4.470;2023-04-09T06:22:09;0.20;;;0.20;;
19927;SDS011;10126;50.876;4.470;2023-04-09T06:24:12;0.20;;;0.20;;
19927;SDS011;10126;50.876;4.470;2023-04-09T06:26:13;0.20;;;0.20;;
19927;SDS011;10126;50.876;4.470;2023-04-09T06:28:13;0.20;;;0.20;;
19927;SDS011;10126;50.876;4.470;2023-04-09T06:30:14;0.30;;;0.30;;
19927;SDS011;10126;50.876;4.470;2023-04-09T06:32:15;0.20;;;0.20;;
19927;SDS011;10126;50.876;4.470;2023-04-09T06:36:42;0.20;;;0.20;;
19927;SDS011;10126;50.876;4.470;2023-04-09T06:38:43;0.20;;;0.20;;
19927;SDS011;10126;50.876;4.470;2023-04-09T06:40:44;0.10;;;0.10;;
19927;SDS011;10126;50.876;4.470;2023-04-09T06:42:44;0.10;;;0.10;;
19927;SDS011;10126;50.876;4.470;2023-04-09T06:44:45;0.10;;;0.10;;
19927;SDS011;10126;50.876;4.470;2023-04-09T06:46:46;0.20;;;0.20;;
19927;SDS011;10126;50.876;4.470;2023-04-09T06:48:46;0.10;;;0.10;;
19927;SDS011;10126;50.876;4.470;2023-04-09T06:50:47;0.10;;;0.10;;
19927;SDS011;10126;50.876;4.470;2023-04-09T06:52:48;0.13;;;0.13;;
19927;SDS011;10126;50.876;4.470;2023-04-09T06:54:50;0.17;;;0.17;;
19927;SDS011;10126;50.876;4.470;2023-04-09T06:56:51;0.10;;;0.10;;
19927;SDS011;10126;50.876;4.470;2023-04-09T06:58:51;0.10;;;0.10;;
19927;SDS011;10126;50.876;4.470;2023-04-09T07:00:52;0.20;;;0.20;;
19927;SDS011;10126;50.876;4.470;2023-04-09T07:02:53;0.10;;;0.10;;
19927;SDS011;10126;50.876;4.470;2023-04-09T07:04:53;0.10;;;0.10;;
19927;SDS011;10126;50.876;4.470;2023-04-09T07:06:54;0.10;;;0.10;;
19927;SDS011;10126;50.876;4.470;2023-04-09T07:08:55;0.13;;;0.13;;
19927;SDS011;10126;50.876;4.470;2023-04-09T07:10:56;0.10;;;0.10;;
19927;SDS011;10126;50.876;4.470;2023-04-09T07:12:57;0.10;;;0.10;;
19927;SDS011;10126;50.876;4.470;2023-04-09T07:14:58;0.10;;;0.10;;
19927;SDS011;10126;50.876;4.470;2023-04-09T07:16:59;0.10;;;0.10;;
19927;SDS011;10126;50.876;4.470;2023-04-09T07:19:00;0.10;;;0.10;;
19927;SDS011;10126;50.876;4.470;2023-04-09T07:21:01;0.10;;;0.10;;
19927;SDS011;10126;50.876;4.470;2023-04-09T07:23:01;0.10;;;0.10;;
19927;SDS011;10126;50.876;4.470;2023-04-09T07:25:02;0.10;;;0.10;;
19927;SDS011;10126;50.876;4.470;2023-04-09T07:27:03;0.10;;;0.10;;
19927;SDS011;10126;50.876;4.470;2023-04-09T07:29:04;0.10;;;0.10;;
19927;SDS011;10126;50.876;4.470;2023-04-09T07:31:05;0.10;;;0.10;;
19927;SDS011;10126;50.876;4.470;2023-04-09T07:33:06;0.10;;;0.10;;
19927;SDS011;10126;50.876;4.470;2023-04-09T07:35:07;0.10;;;0.10;;
19927;SDS011;10126;50.876;4.470;2023-04-09T07:37:11;0.10;;;0.10;;
19927;SDS011;10126;50.876;4.470;2023-04-09T07:39:12;0.10;;;0.10;;
19927;SDS011;10126;50.876;4.470;2023-04-09T07:41:12;0.10;;;0.10;;
19927;SDS011;10126;50.876;4.470;2023-04-09T07:43:13;0.10;;;0.10;;
19927;SDS011;10126;50.876;4.470;2023-04-09T07:45:14;0.10;;;0.10;;
19927;SDS011;10126;50.876;4.470;2023-04-09T07:47:16;0.10;;;0.10;;
19927;SDS011;10126;50.876;4.470;2023-04-09T07:49:16;0.10;;;0.10;;
19927;SDS011;10126;50.876;4.470;2023-04-09T07:51:17;0.10;;;0.10;;
19927;SDS011;10126;50.876;4.470;2023-04-09T07:53:18;0.10;;;0.10;;
19927;SDS011;10126;50.876;4.470;2023-04-09T07:55:18;0.10;;;0.10;;
19927;SDS011;10126;50.876;4.470;2023-04-09T07:57:19;0.10;;;0.10;;
19927;SDS011;10126;50.876;4.470;2023-04-09T07:59:20;0.10;;;0.10;;
19927;SDS011;10126;50.876;4.470;2023-04-09T08:01:20;0.20;;;0.20;;
19927;SDS011;10126;50.876;4.470;2023-04-09T08:03:23;0.10;;;0.10;;
19927;SDS011;10126;50.876;4.470;2023-04-09T08:05:24;0.20;;;0.20;;
19927;SDS011;10126;50.876;4.470;2023-04-09T08:07:30;0.10;;;0.10;;
19927;SDS011;10126;50.876;4.470;2023-04-09T08:09:47;0.20;;;0.20;;
19927;SDS011;10126;50.876;4.470;2023-04-09T08:11:50;0.20;;;0.20;;
19927;SDS011;10126;50.876;4.470;2023-04-09T08:14:02;0.10;;;0.10;;
19927;SDS011;10126;50.876;4.470;2023-04-09T08:16:05;0.10;;;0.10;;
19927;SDS011;10126;50.876;4.470;2023-04-09T08:18:05;0.10;;;0.10;;
19927;SDS011;10126;50.876;4.470;2023-04-09T08:20:06;0.10;;;0.10;;
19927;SDS011;10126;50.876;4.470;2023-04-09T08:22:07;0.10;;;0.10;;
19927;SDS011;10126;50.876;4.470;2023-04-09T08:24:08;0.10;;;0.10;;
19927;SDS011;10126;50.876;4.470;2023-04-09T08:26:10;0.10;;;0.10;;
19927;SDS011;10126;50.876;4.470;2023-04-09T08:28:11;0.10;;;0.10;;
19927;SDS011;10126;50.876;4.470;2023-04-09T08:30:12;0.10;;;0.10;;
19927;SDS011;10126;50.876;4.470;2023-04-09T08:32:13;0.10;;;0.10;;
19927;SDS011;10126;50.876;4.470;2023-04-09T08:34:13;0.00;;;0.00;;
19927;SDS011;10126;50.876;4.470;2023-04-09T08:36:16;0.10;;;0.10;;
19927;SDS011;10126;50.876;4.470;2023-04-09T08:38:19;0.00;;;0.00;;
19927;SDS011;10126;50.876;4.470;2023-04-09T08:40:20;0.10;;;0.10;;
19927;SDS011;10126;50.876;4.470;2023-04-09T08:42:21;0.10;;;0.10;;
19927;SDS011;10126;50.876;4.470;2023-04-09T08:44:25;0.10;;;0.10;;
19927;SDS011;10126;50.876;4.470;2023-04-09T08:46:26;0.10;;;0.10;;
19927;SDS011;10126;50.876;4.470;2023-04-09T08:48:28;0.10;;;0.10;;
19927;SDS011;10126;50.876;4.470;2023-04-09T08:50:29;0.00;;;0.00;;
19927;SDS011;10126;50.876;4.470;2023-04-09T08:52:31;0.10;;;0.10;;
19927;SDS011;10126;50.876;4.470;2023-04-09T08:54:33;0.00;;;0.00;;
19927;SDS011;10126;50.876;4.470;2023-04-09T08:56:34;0.10;;;0.10;;
19927;SDS011;10126;50.876;4.470;2023-04-09T08:58:35;0.10;;;0.10;;
19927;SDS011;10126;50.876;4.470;2023-04-09T09:00:36;0.10;;;0.10;;
19927;SDS011;10126;50.876;4.470;2023-04-09T09:02:37;0.10;;;0.10;;
19927;SDS011;10126;50.876;4.470;2023-04-09T09:04:45;0.00;;;0.00;;
19927;SDS011;10126;50.876;4.470;2023-04-09T09:06:47;0.10;;;0.10;;
19927;SDS011;10126;50.876;4.470;2023-04-09T09:11:06;0.10;;;0.10;;
19927;SDS011;10126;50.876;4.470;2023-04-09T09:15:24;0.00;;;0.00;;
19927;SDS011;10126;50.876;4.470;2023-04-09T09:17:28;0.10;;;0.10;;
19927;SDS011;10126;50.876;4.470;2023-04-09T09:19:30;0.00;;;0.00;;
19927;SDS011;10126;50.876;4.470;2023-04-09T09:21:34;0.10;;;0.10;;
19927;SDS011;10126;50.876;4.470;2023-04-09T09:23:35;0.10;;;0.10;;
19927;SDS011;10126;50.876;4.470;2023-04-09T09:25:39;0.10;;;0.10;;
19927;SDS011;10126;50.876;4.470;2023-04-09T09:27:40;0.00;;;0.00;;
19927;SDS011;10126;50.876;4.470;2023-04-09T09:29:42;0.10;;;0.10;;
19927;SDS011;10126;50.876;4.470;2023-04-09T09:31:51;0.10;;;0.10;;
19927;SDS011;10126;50.876;4.470;2023-04-09T09:33:52;0.10;;;0.10;;
19927;SDS011;10126;50.876;4.470;2023-04-09T09:35:53;0.10;;;0.10;;
19927;SDS011;10126;50.876;4.470;2023-04-09T09:38:02;0.10;;;0.10;;
19927;SDS011;10126;50.876;4.470;2023-04-09T09:40:03;0.10;;;0.10;;
19927;SDS011;10126;50.876;4.470;2023-04-09T09:42:07;0.10;;;0.10;;
19927;SDS011;10126;50.876;4.470;2023-04-09T09:44:08;0.00;;;0.00;;
19927;SDS011;10126;50.876;4.470;2023-04-09T09:46:10;0.00;;;0.00;;
19927;SDS011;10126;50.876;4.470;2023-04-09T09:48:11;0.10;;;0.10;;
19927;SDS011;10126;50.876;4.470;2023-04-09T09:50:12;0.10;;;0.10;;
19927;SDS011;10126;50.876;4.470;2023-04-09T09:52:12;0.10;;;0.10;;
19927;SDS011;10126;50.876;4.470;2023-04-09T09:54:14;0.10;;;0.10;;
19927;SDS011;10126;50.876;4.470;2023-04-09T09:56:21;0.00;;;0.00;;
19927;SDS011;10126;50.876;4.470;2023-04-09T09:58:27;0.10;;;0.10;;
19927;SDS011;10126;50.876;4.470;2023-04-09T10:00:34;0.00;;;0.00;;
19927;SDS011;10126;50.876;4.470;2023-04-09T10:02:52;0.10;;;0.10;;
19927;SDS011;10126;50.876;4.470;2023-04-09T10:05:01;0.10;;;0.10;;
19927;SDS011;10126;50.876;4.470;2023-04-09T10:07:05;0.00;;;0.00;;
19927;SDS011;10126;50.876;4.470;2023-04-09T10:09:07;0.00;;;0.00;;
19927;SDS011;10126;50.876;4.470;2023-04-09T10:11:08;0.00;;;0.00;;
19927;SDS011;10126;50.876;4.470;2023-04-09T10:13:12;0.00;;;0.00;;
19927;SDS011;10126;50.876;4.470;2023-04-09T10:15:20;0.00;;;0.00;;
19927;SDS011;10126;50.876;4.470;2023-04-09T10:17:21;0.10;;;0.10;;
19927;SDS011;10126;50.876;4.470;2023-04-09T10:19:22;0.10;;;0.10;;
19927;SDS011;10126;50.876;4.470;2023-04-09T10:21:37;0.00;;;0.00;;
19927;SDS011;10126;50.876;4.470;2023-04-09T10:23:43;0.10;;;0.10;;
19927;SDS011;10126;50.876;4.470;2023-04-09T10:25:47;0.10;;;0.10;;
19927;SDS011;10126;50.876;4.470;2023-04-09T10:28:00;0.10;;;0.10;;
19927;SDS011;10126;50.876;4.470;2023-04-09T10:30:01;0.10;;;0.10;;
19927;SDS011;10126;50.876;4.470;2023-04-09T10:32:04;0.10;;;0.10;;
19927;SDS011;10126;50.876;4.470;2023-04-09T10:34:06;0.10;;;0.10;;
19927;SDS011;10126;50.876;4.470;2023-04-09T10:36:09;0.10;;;0.10;;
19927;SDS011;10126;50.876;4.470;2023-04-09T10:38:13;0.10;;;0.10;;
19927;SDS011;10126;50.876;4.470;2023-04-09T10:40:20;0.10;;;0.10;;
19927;SDS011;10126;50.876;4.470;2023-04-09T10:42:31;0.10;;;0.10;;
19927;SDS011;10126;50.876;4.470;2023-04-09T10:44:42;0.10;;;0.10;;
19927;SDS011;10126;50.876;4.470;2023-04-09T10:46:42;0.10;;;0.10;;
19927;SDS011;10126;50.876;4.470;2023-04-09T10:48:45;0.13;;;0.13;;
19927;SDS011;10126;50.876;4.470;2023-04-09T10:50:45;0.10;;;0.10;;
19927;SDS011;10126;50.876;4.470;2023-04-09T10:52:51;0.10;;;0.10;;
19927;SDS011;10126;50.876;4.470;2023-04-09T10:54:53;0.10;;;0.10;;
19927;SDS011;10126;50.876;4.470;2023-04-09T10:59:10;0.10;;;0.10;;
19927;SDS011;10126;50.876;4.470;2023-04-09T11:01:11;0.10;;;0.10;;
19927;SDS011;10126;50.876;4.470;2023-04-09T11:03:22;0.10;;;0.10;;
19927;SDS011;10126;50.876;4.470;2023-04-09T11:05:30;0.10;;;0.10;;
19927;SDS011;10126;50.876;4.470;2023-04-09T11:07:34;0.10;;;0.10;;
19927;SDS011;10126;50.876;4.470;2023-04-09T11:09:40;0.10;;;0.10;;
19927;SDS011;10126;50.876;4.470;2023-04-09T11:11:41;0.10;;;0.10;;
19927;SDS011;10126;50.876;4.470;2023-04-09T11:13:41;0.20;;;0.20;;
19927;SDS011;10126;50.876;4.470;2023-04-09T11:15:43;0.10;;;0.10;;
19927;SDS011;10126;50.876;4.470;2023-04-09T11:17:44;0.13;;;0.13;;
19927;SDS011;10126;50.876;4.470;2023-04-09T11:19:46;0.10;;;0.10;;
19927;SDS011;10126;50.876;4.470;2023-04-09T11:21:47;0.10;;;0.10;;
19927;SDS011;10126;50.876;4.470;2023-04-09T11:23:51;0.10;;;0.10;;
19927;SDS011;10126;50.876;4.470;2023-04-09T11:25:52;0.10;;;0.10;;
19927;SDS011;10126;50.876;4.470;2023-04-09T11:27:53;0.13;;;0.13;;
19927;SDS011;10126;50.876;4.470;2023-04-09T11:29:54;0.10;;;0.10;;
19927;SDS011;10126;50.876;4.470;2023-04-09T11:31:55;0.10;;;0.10;;
19927;SDS011;10126;50.876;4.470;2023-04-09T11:33:56;0.10;;;0.10;;
19927;SDS011;10126;50.876;4.470;2023-04-09T11:35:56;0.10;;;0.10;;
19927;SDS011;10126;50.876;4.470;2023-04-09T11:37:57;0.10;;;0.10;;
19927;SDS011;10126;50.876;4.470;2023-04-09T11:39:58;0.10;;;0.10;;
19927;SDS011;10126;50.876;4.470;2023-04-09T11:41:58;0.10;;;0.10;;
19927;SDS011;10126;50.876;4.470;2023-04-09T11:44:02;0.10;;;0.10;;
19927;SDS011;10126;50.876;4.470;2023-04-09T11:46:04;0.10;;;0.10;;
19927;SDS011;10126;50.876;4.470;2023-04-09T11:48:06;0.10;;;0.10;;
19927;SDS011;10126;50.876;4.470;2023-04-09T11:50:08;0.10;;;0.10;;
19927;SDS011;10126;50.876;4.470;2023-04-09T11:52:10;0.10;;;0.10;;
19927;SDS011;10126;50.876;4.470;2023-04-09T11:54:11;0.10;;;0.10;;
19927;SDS011;10126;50.876;4.470;2023-04-09T11:56:11;0.10;;;0.10;;
19927;SDS011;10126;50.876;4.470;2023-04-09T11:58:12;0.10;;;0.10;;
19927;SDS011;10126;50.876;4.470;2023-04-09T12:00:14;0.10;;;0.10;;
19927;SDS011;10126;50.876;4.470;2023-04-09T12:02:16;0.10;;;0.10;;
19927;SDS011;10126;50.876;4.470;2023-04-09T12:04:18;0.10;;;0.10;;
19927;SDS011;10126;50.876;4.470;2023-04-09T12:06:21;0.10;;;0.10;;
19927;SDS011;10126;50.876;4.470;2023-04-09T12:08:23;0.10;;;0.10;;
19927;SDS011;10126;50.876;4.470;2023-04-09T12:10:27;0.10;;;0.10;;
19927;SDS011;10126;50.876;4.470;2023-04-09T12:12:29;0.20;;;0.20;;
19927;SDS011;10126;50.876;4.470;2023-04-09T12:14:30;0.10;;;0.10;;
19927;SDS011;10126;50.876;4.470;2023-04-09T12:16:31;0.10;;;0.10;;
19927;SDS011;10126;50.876;4.470;2023-04-09T12:18:35;0.10;;;0.10;;
19927;SDS011;10126;50.876;4.470;2023-04-09T12:20:40;0.10;;;0.10;;
19927;SDS011;10126;50.876;4.470;2023-04-09T12:22:43;0.10;;;0.10;;
19927;SDS011;10126;50.876;4.470;2023-04-09T12:24:43;0.10;;;0.10;;
19927;SDS011;10126;50.876;4.470;2023-04-09T12:26:45;0.10;;;0.10;;
19927;SDS011;10126;50.876;4.470;2023-04-09T12:28:46;0.10;;;0.10;;
19927;SDS011;10126;50.876;4.470;2023-04-09T12:30:47;0.10;;;0.10;;
19927;SDS011;10126;50.876;4.470;2023-04-09T12:32:50;0.10;;;0.10;;
19927;SDS011;10126;50.876;4.470;2023-04-09T12:34:51;0.10;;;0.10;;
19927;SDS011;10126;50.876;4.470;2023-04-09T12:36:52;0.10;;;0.10;;
19927;SDS011;10126;50.876;4.470;2023-04-09T12:38:53;0.10;;;0.10;;